sensor_id;sensor_type;location;lat;lon;timestamp;temperature;humidity
9973;DHT22;5027;53.560;10.062;2024-03-06T00:00:12;12.10;98.30
9973;DHT22;5027;53.560;10.062;2024-03-06T00:02:39;12.20;98.40
9973;DHT22;5027;53.560;10.062;2024-03-06T00:05:06;12.20;98.40
9973;DHT22;5027;53.560;10.062;2024-03-06T00:07:34;12.20;98.80
9973;DHT22;5027;53.560;10.062;2024-03-06T00:10:01;12.20;98.50
9973;DHT22;5027;53.560;10.062;2024-03-06T00:12:28;12.20;98.60
9973;DHT22;5027;53.560;10.062;2024-03-06T00:14:55;12.20;98.70
9973;DHT22;5027;53.560;10.062;2024-03-06T00:17:21;12.20;98.60
9973;DHT22;5027;53.560;10.062;2024-03-06T00:19:48;12.20;98.70
9973;DHT22;5027;53.560;10.062;2024-03-06T00:22:15;12.10;98.70
9973;DHT22;5027;53.560;10.062;2024-03-06T00:24:41;12.10;98.70
9973;DHT22;5027;53.560;10.062;2024-03-06T00:27:08;12.10;98.80
9973;DHT22;5027;53.560;10.062;2024-03-06T00:29:36;12.10;99.00
9973;DHT22;5027;53.560;10.062;2024-03-06T00:32:04;12.10;98.80
9973;DHT22;5027;53.560;10.062;2024-03-06T00:34:31;12.10;98.70
9973;DHT22;5027;53.560;10.062;2024-03-06T00:36:58;12.10;99.00
9973;DHT22;5027;53.560;10.062;2024-03-06T00:39:25;12.10;98.80
9973;DHT22;5027;53.560;10.062;2024-03-06T00:41:51;12.10;98.90
9973;DHT22;5027;53.560;10.062;2024-03-06T00:44:18;12.20;98.70
9973;DHT22;5027;53.560;10.062;2024-03-06T00:46:45;12.20;98.90
9973;DHT22;5027;53.560;10.062;2024-03-06T00:49:12;12.10;98.70
9973;DHT22;5027;53.560;10.062;2024-03-06T00:51:38;12.10;99.00
9973;DHT22;5027;53.560;10.062;2024-03-06T00:54:14;12.00;98.90
9973;DHT22;5027;53.560;10.062;2024-03-06T00:56:41;12.00;99.00
9973;DHT22;5027;53.560;10.062;2024-03-06T00:59:07;12.00;99.10
9973;DHT22;5027;53.560;10.062;2024-03-06T01:01:34;12.00;99.00
9973;DHT22;5027;53.560;10.062;2024-03-06T01:04:01;12.00;99.10
9973;DHT22;5027;53.560;10.062;2024-03-06T01:06:28;12.00;99.20
9973;DHT22;5027;53.560;10.062;2024-03-06T01:08:56;12.00;99.20
9973;DHT22;5027;53.560;10.062;2024-03-06T01:11:24;12.20;99.00
9973;DHT22;5027;53.560;10.062;2024-03-06T01:13:51;12.10;98.90
9973;DHT22;5027;53.560;10.062;2024-03-06T01:16:18;12.10;98.80
9973;DHT22;5027;53.560;10.062;2024-03-06T01:18:44;12.00;98.90
9973;DHT22;5027;53.560;10.062;2024-03-06T01:21:11;12.00;98.90
9973;DHT22;5027;53.560;10.062;2024-03-06T01:23:38;12.10;98.70
9973;DHT22;5027;53.560;10.062;2024-03-06T01:26:05;12.10;98.80
9973;DHT22;5027;53.560;10.062;2024-03-06T01:28:32;12.00;98.90
9973;DHT22;5027;53.560;10.062;2024-03-06T01:30:59;12.00;99.10
9973;DHT22;5027;53.560;10.062;2024-03-06T01:33:26;11.90;99.00
9973;DHT22;5027;53.560;10.062;2024-03-06T01:35:53;12.00;99.00
9973;DHT22;5027;53.560;10.062;2024-03-06T01:38:20;12.00;98.90
9973;DHT22;5027;53.560;10.062;2024-03-06T01:40:49;12.00;99.00
9973;DHT22;5027;53.560;10.062;2024-03-06T01:43:24;12.00;99.00
9973;DHT22;5027;53.560;10.062;2024-03-06T01:45:51;11.90;99.10
9973;DHT22;5027;53.560;10.062;2024-03-06T01:48:22;11.90;99.20
9973;DHT22;5027;53.560;10.062;2024-03-06T01:50:49;12.00;99.20
9973;DHT22;5027;53.560;10.062;2024-03-06T01:53:17;11.90;99.30
9973;DHT22;5027;53.560;10.062;2024-03-06T01:55:45;11.90;99.20
9973;DHT22;5027;53.560;10.062;2024-03-06T01:58:12;11.90;99.20
9973;DHT22;5027;53.560;10.062;2024-03-06T02:00:39;11.90;99.30
9973;DHT22;5027;53.560;10.062;2024-03-06T02:03:06;11.80;99.20
9973;DHT22;5027;53.560;10.062;2024-03-06T02:05:34;11.90;99.30
9973;DHT22;5027;53.560;10.062;2024-03-06T02:08:01;11.90;99.30
9973;DHT22;5027;53.560;10.062;2024-03-06T02:10:30;11.90;99.30
9973;DHT22;5027;53.560;10.062;2024-03-06T02:12:57;11.90;99.30
9973;DHT22;5027;53.560;10.062;2024-03-06T02:15:24;11.90;99.20
9973;DHT22;5027;53.560;10.062;2024-03-06T02:17:51;11.90;99.20
9973;DHT22;5027;53.560;10.062;2024-03-06T02:20:24;11.90;99.20
9973;DHT22;5027;53.560;10.062;2024-03-06T02:22:51;11.90;99.20
9973;DHT22;5027;53.560;10.062;2024-03-06T02:25:18;11.80;99.30
9973;DHT22;5027;53.560;10.062;2024-03-06T02:27:46;11.80;99.20
9973;DHT22;5027;53.560;10.062;2024-03-06T02:30:18;11.90;99.20
9973;DHT22;5027;53.560;10.062;2024-03-06T02:32:45;11.80;99.20
9973;DHT22;5027;53.560;10.062;2024-03-06T02:35:12;11.80;99.00
9973;DHT22;5027;53.560;10.062;2024-03-06T02:37:44;11.90;99.20
9973;DHT22;5027;53.560;10.062;2024-03-06T02:40:11;11.80;99.20
9973;DHT22;5027;53.560;10.062;2024-03-06T02:42:38;11.80;99.20
9973;DHT22;5027;53.560;10.062;2024-03-06T02:45:06;11.90;99.20
9973;DHT22;5027;53.560;10.062;2024-03-06T02:47:34;11.90;99.20
9973;DHT22;5027;53.560;10.062;2024-03-06T02:50:00;11.80;99.30
9973;DHT22;5027;53.560;10.062;2024-03-06T02:52:27;11.90;99.20
9973;DHT22;5027;53.560;10.062;2024-03-06T02:54:54;11.80;98.90
9973;DHT22;5027;53.560;10.062;2024-03-06T02:57:21;11.80;99.10
9973;DHT22;5027;53.560;10.062;2024-03-06T02:59:48;11.80;99.20
9973;DHT22;5027;53.560;10.062;2024-03-06T03:02:15;11.80;99.10
9973;DHT22;5027;53.560;10.062;2024-03-06T03:04:42;11.90;99.30
9973;DHT22;5027;53.560;10.062;2024-03-06T03:07:09;11.80;98.90
9973;DHT22;5027;53.560;10.062;2024-03-06T03:09:37;11.70;99.10
9973;DHT22;5027;53.560;10.062;2024-03-06T03:12:05;11.70;99.00
9973;DHT22;5027;53.560;10.062;2024-03-06T03:14:32;11.70;99.10
9973;DHT22;5027;53.560;10.062;2024-03-06T03:17:00;11.70;98.90
9973;DHT22;5027;53.560;10.062;2024-03-06T03:19:27;11.70;98.90
9973;DHT22;5027;53.560;10.062;2024-03-06T03:21:53;11.70;98.60
9973;DHT22;5027;53.560;10.062;2024-03-06T03:24:20;11.70;98.90
9973;DHT22;5027;53.560;10.062;2024-03-06T03:26:48;11.60;98.90
9973;DHT22;5027;53.560;10.062;2024-03-06T03:29:14;11.60;98.80
9973;DHT22;5027;53.560;10.062;2024-03-06T03:31:42;11.60;98.80
9973;DHT22;5027;53.560;10.062;2024-03-06T03:34:09;11.60;98.70
9973;DHT22;5027;53.560;10.062;2024-03-06T03:36:41;11.60;98.60
9973;DHT22;5027;53.560;10.062;2024-03-06T03:39:10;11.60;98.60
9973;DHT22;5027;53.560;10.062;2024-03-06T03:41:46;11.60;98.40
9973;DHT22;5027;53.560;10.062;2024-03-06T03:44:14;11.60;98.40
9973;DHT22;5027;53.560;10.062;2024-03-06T03:46:41;11.50;98.60
9973;DHT22;5027;53.560;10.062;2024-03-06T03:49:09;11.50;98.60
9973;DHT22;5027;53.560;10.062;2024-03-06T03:51:37;11.40;98.60
9973;DHT22;5027;53.560;10.062;2024-03-06T03:54:04;11.40;98.50
9973;DHT22;5027;53.560;10.062;2024-03-06T03:56:32;11.40;98.60
9973;DHT22;5027;53.560;10.062;2024-03-06T03:58:59;11.40;98.50
9973;DHT22;5027;53.560;10.062;2024-03-06T04:01:25;11.40;98.40
9973;DHT22;5027;53.560;10.062;2024-03-06T04:03:52;11.30;98.70
9973;DHT22;5027;53.560;10.062;2024-03-06T04:06:19;11.30;98.70
9973;DHT22;5027;53.560;10.062;2024-03-06T04:08:46;11.30;98.60
9973;DHT22;5027;53.560;10.062;2024-03-06T04:11:12;11.20;98.60
9973;DHT22;5027;53.560;10.062;2024-03-06T04:13:39;11.30;98.60
9973;DHT22;5027;53.560;10.062;2024-03-06T04:16:06;11.20;98.60
9973;DHT22;5027;53.560;10.062;2024-03-06T04:18:33;11.20;98.50
9973;DHT22;5027;53.560;10.062;2024-03-06T04:21:04;11.20;98.60
9973;DHT22;5027;53.560;10.062;2024-03-06T04:23:33;11.20;98.70
9973;DHT22;5027;53.560;10.062;2024-03-06T04:26:00;11.20;98.60
9973;DHT22;5027;53.560;10.062;2024-03-06T04:28:27;11.20;98.50
9973;DHT22;5027;53.560;10.062;2024-03-06T04:30:53;11.20;98.50
9973;DHT22;5027;53.560;10.062;2024-03-06T04:33:20;11.20;98.50
9973;DHT22;5027;53.560;10.062;2024-03-06T04:35:47;11.20;98.50
9973;DHT22;5027;53.560;10.062;2024-03-06T04:38:14;11.20;98.50
9973;DHT22;5027;53.560;10.062;2024-03-06T04:40:41;11.10;98.40
9973;DHT22;5027;53.560;10.062;2024-03-06T04:43:07;11.20;98.40
9973;DHT22;5027;53.560;10.062;2024-03-06T04:45:34;11.10;98.40
9973;DHT22;5027;53.560;10.062;2024-03-06T04:48:01;11.10;98.20
9973;DHT22;5027;53.560;10.062;2024-03-06T04:50:28;11.10;98.20
9973;DHT22;5027;53.560;10.062;2024-03-06T04:52:55;11.10;98.20
9973;DHT22;5027;53.560;10.062;2024-03-06T04:55:22;11.10;98.20
9973;DHT22;5027;53.560;10.062;2024-03-06T04:57:52;11.10;98.20
9973;DHT22;5027;53.560;10.062;2024-03-06T05:00:22;11.10;98.20
9973;DHT22;5027;53.560;10.062;2024-03-06T05:02:49;11.10;98.00
9973;DHT22;5027;53.560;10.062;2024-03-06T05:05:34;11.00;98.20
9973;DHT22;5027;53.560;10.062;2024-03-06T05:08:19;11.00;98.10
9973;DHT22;5027;53.560;10.062;2024-03-06T05:11:04;11.00;98.10
9973;DHT22;5027;53.560;10.062;2024-03-06T05:13:48;11.00;98.00
9973;DHT22;5027;53.560;10.062;2024-03-06T05:16:34;11.00;98.10
9973;DHT22;5027;53.560;10.062;2024-03-06T05:19:18;10.90;98.10
9973;DHT22;5027;53.560;10.062;2024-03-06T05:22:03;11.00;98.10
9973;DHT22;5027;53.560;10.062;2024-03-06T05:24:47;10.90;98.00
9973;DHT22;5027;53.560;10.062;2024-03-06T05:27:31;10.90;98.00
9973;DHT22;5027;53.560;10.062;2024-03-06T05:30:16;11.00;98.00
9973;DHT22;5027;53.560;10.062;2024-03-06T05:33:00;10.90;98.00
9973;DHT22;5027;53.560;10.062;2024-03-06T05:35:44;10.90;97.90
9973;DHT22;5027;53.560;10.062;2024-03-06T05:38:28;10.90;97.90
9973;DHT22;5027;53.560;10.062;2024-03-06T05:41:13;10.90;98.00
9973;DHT22;5027;53.560;10.062;2024-03-06T05:43:57;10.90;97.90
9973;DHT22;5027;53.560;10.062;2024-03-06T05:46:42;10.80;98.00
9973;DHT22;5027;53.560;10.062;2024-03-06T05:49:26;10.80;98.10
9973;DHT22;5027;53.560;10.062;2024-03-06T05:52:10;10.80;98.00
9973;DHT22;5027;53.560;10.062;2024-03-06T05:54:55;10.80;98.00
9973;DHT22;5027;53.560;10.062;2024-03-06T05:57:39;10.70;98.00
9973;DHT22;5027;53.560;10.062;2024-03-06T06:00:23;10.70;98.10
9973;DHT22;5027;53.560;10.062;2024-03-06T06:02:50;10.70;98.30
9973;DHT22;5027;53.560;10.062;2024-03-06T06:05:16;10.70;98.10
9973;DHT22;5027;53.560;10.062;2024-03-06T06:07:52;10.70;98.10
9973;DHT22;5027;53.560;10.062;2024-03-06T06:10:19;10.60;98.30
9973;DHT22;5027;53.560;10.062;2024-03-06T06:12:48;10.70;98.10
9973;DHT22;5027;53.560;10.062;2024-03-06T06:15:15;10.60;98.10
9973;DHT22;5027;53.560;10.062;2024-03-06T06:17:42;10.60;98.20
9973;DHT22;5027;53.560;10.062;2024-03-06T06:20:12;10.60;98.20
9973;DHT22;5027;53.560;10.062;2024-03-06T06:22:42;10.60;98.30
9973;DHT22;5027;53.560;10.062;2024-03-06T06:25:09;10.60;98.30
9973;DHT22;5027;53.560;10.062;2024-03-06T06:27:37;10.60;98.30
9973;DHT22;5027;53.560;10.062;2024-03-06T06:30:07;10.60;98.20
9973;DHT22;5027;53.560;10.062;2024-03-06T06:32:39;10.60;98.20
9973;DHT22;5027;53.560;10.062;2024-03-06T06:35:07;10.60;98.20
9973;DHT22;5027;53.560;10.062;2024-03-06T06:37:36;10.60;98.20
9973;DHT22;5027;53.560;10.062;2024-03-06T06:40:03;10.60;98.50
9973;DHT22;5027;53.560;10.062;2024-03-06T06:42:34;10.60;98.40
9973;DHT22;5027;53.560;10.062;2024-03-06T06:45:01;10.60;98.30
9973;DHT22;5027;53.560;10.062;2024-03-06T06:47:29;10.60;98.40
9973;DHT22;5027;53.560;10.062;2024-03-06T06:49:56;10.60;98.60
9973;DHT22;5027;53.560;10.062;2024-03-06T06:52:22;10.60;98.50
9973;DHT22;5027;53.560;10.062;2024-03-06T06:54:49;10.60;98.40
9973;DHT22;5027;53.560;10.062;2024-03-06T06:57:17;10.70;98.50
9973;DHT22;5027;53.560;10.062;2024-03-06T06:59:44;10.70;98.40
9973;DHT22;5027;53.560;10.062;2024-03-06T07:02:11;10.70;98.60
9973;DHT22;5027;53.560;10.062;2024-03-06T07:04:38;10.70;98.50
9973;DHT22;5027;53.560;10.062;2024-03-06T07:07:04;10.70;98.40
9973;DHT22;5027;53.560;10.062;2024-03-06T07:09:31;10.70;98.30
9973;DHT22;5027;53.560;10.062;2024-03-06T07:11:58;10.80;98.40
9973;DHT22;5027;53.560;10.062;2024-03-06T07:14:24;10.90;98.20
9973;DHT22;5027;53.560;10.062;2024-03-06T07:16:51;10.80;98.20
9973;DHT22;5027;53.560;10.062;2024-03-06T07:19:18;10.80;98.40
9973;DHT22;5027;53.560;10.062;2024-03-06T07:21:45;10.80;98.40
9973;DHT22;5027;53.560;10.062;2024-03-06T07:24:12;10.90;98.40
9973;DHT22;5027;53.560;10.062;2024-03-06T07:26:38;11.00;98.20
9973;DHT22;5027;53.560;10.062;2024-03-06T07:29:05;11.00;98.30
9973;DHT22;5027;53.560;10.062;2024-03-06T07:31:42;11.10;98.20
9973;DHT22;5027;53.560;10.062;2024-03-06T07:34:11;11.00;98.10
9973;DHT22;5027;53.560;10.062;2024-03-06T07:36:38;11.10;98.20
9973;DHT22;5027;53.560;10.062;2024-03-06T07:39:05;11.20;98.30
9973;DHT22;5027;53.560;10.062;2024-03-06T07:41:32;11.20;98.10
9973;DHT22;5027;53.560;10.062;2024-03-06T07:44:02;11.20;98.20
9973;DHT22;5027;53.560;10.062;2024-03-06T07:46:29;11.20;98.10
9973;DHT22;5027;53.560;10.062;2024-03-06T07:48:56;11.20;98.20
9973;DHT22;5027;53.560;10.062;2024-03-06T07:51:23;11.20;98.20
9973;DHT22;5027;53.560;10.062;2024-03-06T07:53:49;11.30;98.00
9973;DHT22;5027;53.560;10.062;2024-03-06T07:56:17;11.30;98.00
9973;DHT22;5027;53.560;10.062;2024-03-06T07:58:44;11.30;98.20
9973;DHT22;5027;53.560;10.062;2024-03-06T08:01:11;11.40;98.00
9973;DHT22;5027;53.560;10.062;2024-03-06T08:03:39;11.40;97.90
9973;DHT22;5027;53.560;10.062;2024-03-06T08:06:06;11.40;97.90
9973;DHT22;5027;53.560;10.062;2024-03-06T08:08:33;11.30;97.80
9973;DHT22;5027;53.560;10.062;2024-03-06T08:11:00;11.20;97.80
9973;DHT22;5027;53.560;10.062;2024-03-06T08:13:27;11.10;98.00
9973;DHT22;5027;53.560;10.062;2024-03-06T08:15:54;11.10;98.00
9973;DHT22;5027;53.560;10.062;2024-03-06T08:18:20;11.20;98.10
9973;DHT22;5027;53.560;10.062;2024-03-06T08:20:47;11.20;98.10
9973;DHT22;5027;53.560;10.062;2024-03-06T08:23:14;11.20;98.20
9973;DHT22;5027;53.560;10.062;2024-03-06T08:25:41;11.20;98.10
9973;DHT22;5027;53.560;10.062;2024-03-06T08:28:07;11.30;98.20
9973;DHT22;5027;53.560;10.062;2024-03-06T08:30:36;11.30;98.20
9973;DHT22;5027;53.560;10.062;2024-03-06T08:33:02;11.40;97.90
9973;DHT22;5027;53.560;10.062;2024-03-06T08:35:30;11.50;98.10
9973;DHT22;5027;53.560;10.062;2024-03-06T08:37:57;11.60;97.90
9973;DHT22;5027;53.560;10.062;2024-03-06T08:40:23;11.50;97.50
9973;DHT22;5027;53.560;10.062;2024-03-06T08:42:52;11.30;97.70
9973;DHT22;5027;53.560;10.062;2024-03-06T08:45:19;11.40;98.10
9973;DHT22;5027;53.560;10.062;2024-03-06T08:47:46;11.60;98.00
9973;DHT22;5027;53.560;10.062;2024-03-06T08:50:14;11.60;97.50
9973;DHT22;5027;53.560;10.062;2024-03-06T08:52:41;11.60;97.90
9973;DHT22;5027;53.560;10.062;2024-03-06T08:55:09;11.60;97.90
9973;DHT22;5027;53.560;10.062;2024-03-06T08:57:36;11.60;97.40
9973;DHT22;5027;53.560;10.062;2024-03-06T09:00:07;11.50;97.10
9973;DHT22;5027;53.560;10.062;2024-03-06T09:02:38;11.40;97.40
9973;DHT22;5027;53.560;10.062;2024-03-06T09:05:06;11.50;97.50
9973;DHT22;5027;53.560;10.062;2024-03-06T09:07:34;11.50;97.30
9973;DHT22;5027;53.560;10.062;2024-03-06T09:10:05;11.40;97.00
9973;DHT22;5027;53.560;10.062;2024-03-06T09:12:34;11.40;96.80
9973;DHT22;5027;53.560;10.062;2024-03-06T09:15:02;11.40;97.40
9973;DHT22;5027;53.560;10.062;2024-03-06T09:17:29;11.50;96.70
9973;DHT22;5027;53.560;10.062;2024-03-06T09:19:56;11.50;96.60
9973;DHT22;5027;53.560;10.062;2024-03-06T09:22:39;11.60;96.80
9973;DHT22;5027;53.560;10.062;2024-03-06T09:25:06;11.70;96.80
9973;DHT22;5027;53.560;10.062;2024-03-06T09:27:34;11.80;96.80
9973;DHT22;5027;53.560;10.062;2024-03-06T09:30:01;11.80;96.40
9973;DHT22;5027;53.560;10.062;2024-03-06T09:32:29;11.80;96.50
9973;DHT22;5027;53.560;10.062;2024-03-06T09:34:58;11.90;96.60
9973;DHT22;5027;53.560;10.062;2024-03-06T09:37:25;12.00;96.50
9973;DHT22;5027;53.560;10.062;2024-03-06T09:39:52;11.90;96.40
9973;DHT22;5027;53.560;10.062;2024-03-06T09:42:18;12.00;96.50
9973;DHT22;5027;53.560;10.062;2024-03-06T09:44:45;11.80;96.30
9973;DHT22;5027;53.560;10.062;2024-03-06T09:47:14;11.60;96.20
9973;DHT22;5027;53.560;10.062;2024-03-06T09:49:41;11.60;96.00
9973;DHT22;5027;53.560;10.062;2024-03-06T09:52:10;11.60;95.90
9973;DHT22;5027;53.560;10.062;2024-03-06T09:54:37;11.60;96.10
9973;DHT22;5027;53.560;10.062;2024-03-06T09:57:06;11.70;96.20
9973;DHT22;5027;53.560;10.062;2024-03-06T09:59:33;11.90;95.80
9973;DHT22;5027;53.560;10.062;2024-03-06T10:02:00;12.00;95.90
9973;DHT22;5027;53.560;10.062;2024-03-06T10:04:33;12.10;95.90
9973;DHT22;5027;53.560;10.062;2024-03-06T10:07:00;12.20;95.50
9973;DHT22;5027;53.560;10.062;2024-03-06T10:09:30;12.00;95.50
9973;DHT22;5027;53.560;10.062;2024-03-06T10:11:59;12.00;95.80
9973;DHT22;5027;53.560;10.062;2024-03-06T10:14:31;12.00;95.50
9973;DHT22;5027;53.560;10.062;2024-03-06T10:17:00;12.10;95.60
9973;DHT22;5027;53.560;10.062;2024-03-06T10:19:28;12.10;95.70
9973;DHT22;5027;53.560;10.062;2024-03-06T10:21:58;12.10;95.90
9973;DHT22;5027;53.560;10.062;2024-03-06T10:24:26;12.10;94.80
9973;DHT22;5027;53.560;10.062;2024-03-06T10:26:58;12.10;95.60
9973;DHT22;5027;53.560;10.062;2024-03-06T10:29:28;12.20;95.10
9973;DHT22;5027;53.560;10.062;2024-03-06T10:31:57;12.40;96.00
9973;DHT22;5027;53.560;10.062;2024-03-06T10:34:26;12.70;97.30
9973;DHT22;5027;53.560;10.062;2024-03-06T10:36:57;12.90;96.20
9973;DHT22;5027;53.560;10.062;2024-03-06T10:39:24;13.00;95.50
9973;DHT22;5027;53.560;10.062;2024-03-06T10:41:56;13.00;95.20
9973;DHT22;5027;53.560;10.062;2024-03-06T10:44:25;13.00;95.20
9973;DHT22;5027;53.560;10.062;2024-03-06T10:47:00;13.00;94.90
9973;DHT22;5027;53.560;10.062;2024-03-06T10:49:29;13.00;95.20
9973;DHT22;5027;53.560;10.062;2024-03-06T10:52:03;13.10;95.90
9973;DHT22;5027;53.560;10.062;2024-03-06T10:54:34;13.30;94.90
9973;DHT22;5027;53.560;10.062;2024-03-06T10:57:03;13.40;95.00
9973;DHT22;5027;53.560;10.062;2024-03-06T10:59:30;13.40;94.80
9973;DHT22;5027;53.560;10.062;2024-03-06T11:01:59;13.40;94.50
9973;DHT22;5027;53.560;10.062;2024-03-06T11:04:32;13.40;95.20
9973;DHT22;5027;53.560;10.062;2024-03-06T11:07:03;13.50;94.70
9973;DHT22;5027;53.560;10.062;2024-03-06T11:09:34;13.60;94.20
9973;DHT22;5027;53.560;10.062;2024-03-06T11:12:07;13.60;94.70
9973;DHT22;5027;53.560;10.062;2024-03-06T11:14:38;13.60;94.30
9973;DHT22;5027;53.560;10.062;2024-03-06T11:17:08;13.70;94.80
9973;DHT22;5027;53.560;10.062;2024-03-06T11:28:37;13.60;94.00
9973;DHT22;5027;53.560;10.062;2024-03-06T11:31:08;13.60;94.00
9973;DHT22;5027;53.560;10.062;2024-03-06T11:36:20;13.70;94.00
9973;DHT22;5027;53.560;10.062;2024-03-06T11:38:58;13.70;93.80
9973;DHT22;5027;53.560;10.062;2024-03-06T11:41:28;13.60;93.80
9973;DHT22;5027;53.560;10.062;2024-03-06T11:43:56;13.50;93.70
9973;DHT22;5027;53.560;10.062;2024-03-06T11:49:21;13.40;93.90
9973;DHT22;5027;53.560;10.062;2024-03-06T11:51:59;13.40;93.80
9973;DHT22;5027;53.560;10.062;2024-03-06T11:54:26;13.30;94.00
9973;DHT22;5027;53.560;10.062;2024-03-06T11:56:58;13.30;93.90
9973;DHT22;5027;53.560;10.062;2024-03-06T11:59:26;13.30;94.30
9973;DHT22;5027;53.560;10.062;2024-03-06T12:02:01;13.30;93.60
9973;DHT22;5027;53.560;10.062;2024-03-06T12:04:31;13.20;93.60
9973;DHT22;5027;53.560;10.062;2024-03-06T12:06:58;13.30;94.40
9973;DHT22;5027;53.560;10.062;2024-03-06T12:09:38;13.60;97.00
9973;DHT22;5027;53.560;10.062;2024-03-06T12:12:09;14.10;99.90
9973;DHT22;5027;53.560;10.062;2024-03-06T12:14:37;14.10;99.90
9973;DHT22;5027;53.560;10.062;2024-03-06T12:17:12;14.10;99.90
9973;DHT22;5027;53.560;10.062;2024-03-06T12:19:42;14.20;99.90
9973;DHT22;5027;53.560;10.062;2024-03-06T12:22:10;14.20;99.90
9973;DHT22;5027;53.560;10.062;2024-03-06T12:24:37;14.10;99.90
9973;DHT22;5027;53.560;10.062;2024-03-06T12:27:06;14.20;99.90
9973;DHT22;5027;53.560;10.062;2024-03-06T12:29:34;14.10;99.90
9973;DHT22;5027;53.560;10.062;2024-03-06T12:32:02;14.20;99.90
9973;DHT22;5027;53.560;10.062;2024-03-06T12:34:29;14.30;99.90
9973;DHT22;5027;53.560;10.062;2024-03-06T12:37:08;14.40;99.90
9973;DHT22;5027;53.560;10.062;2024-03-06T12:39:35;14.30;97.60
9973;DHT22;5027;53.560;10.062;2024-03-06T12:42:06;13.70;95.40
9973;DHT22;5027;53.560;10.062;2024-03-06T12:44:33;13.60;94.90
9973;DHT22;5027;53.560;10.062;2024-03-06T12:46:59;13.60;95.10
9973;DHT22;5027;53.560;10.062;2024-03-06T12:49:27;13.60;94.50
9973;DHT22;5027;53.560;10.062;2024-03-06T12:51:55;13.60;94.90
9973;DHT22;5027;53.560;10.062;2024-03-06T12:54:21;13.70;94.90
9973;DHT22;5027;53.560;10.062;2024-03-06T12:56:48;13.80;94.30
9973;DHT22;5027;53.560;10.062;2024-03-06T12:59:15;13.70;93.90
9973;DHT22;5027;53.560;10.062;2024-03-06T13:01:41;13.70;94.20
9973;DHT22;5027;53.560;10.062;2024-03-06T13:04:08;13.60;93.90
9973;DHT22;5027;53.560;10.062;2024-03-06T13:06:39;13.50;93.80
9973;DHT22;5027;53.560;10.062;2024-03-06T13:09:07;13.40;94.20
9973;DHT22;5027;53.560;10.062;2024-03-06T13:11:37;13.50;94.10
9973;DHT22;5027;53.560;10.062;2024-03-06T13:14:03;13.40;94.20
9973;DHT22;5027;53.560;10.062;2024-03-06T13:16:30;13.40;94.10
9973;DHT22;5027;53.560;10.062;2024-03-06T13:18:57;13.40;94.20
9973;DHT22;5027;53.560;10.062;2024-03-06T13:21:27;13.40;93.80
9973;DHT22;5027;53.560;10.062;2024-03-06T13:23:53;13.40;94.30
9973;DHT22;5027;53.560;10.062;2024-03-06T13:26:20;13.40;94.40
9973;DHT22;5027;53.560;10.062;2024-03-06T13:28:47;13.40;94.20
9973;DHT22;5027;53.560;10.062;2024-03-06T13:31:14;13.30;93.80
9973;DHT22;5027;53.560;10.062;2024-03-06T13:33:40;13.40;94.10
9973;DHT22;5027;53.560;10.062;2024-03-06T13:36:07;13.40;93.70
9973;DHT22;5027;53.560;10.062;2024-03-06T13:38:34;13.30;93.40
9973;DHT22;5027;53.560;10.062;2024-03-06T13:41:02;13.30;93.60
9973;DHT22;5027;53.560;10.062;2024-03-06T13:43:29;13.30;93.70
9973;DHT22;5027;53.560;10.062;2024-03-06T13:45:56;13.20;93.80
9973;DHT22;5027;53.560;10.062;2024-03-06T13:48:23;13.30;94.00
9973;DHT22;5027;53.560;10.062;2024-03-06T13:50:49;13.30;93.70
9973;DHT22;5027;53.560;10.062;2024-03-06T13:53:17;13.30;93.80
9973;DHT22;5027;53.560;10.062;2024-03-06T13:55:43;13.30;94.00
9973;DHT22;5027;53.560;10.062;2024-03-06T13:58:10;13.30;93.90
9973;DHT22;5027;53.560;10.062;2024-03-06T14:00:38;13.30;94.00
9973;DHT22;5027;53.560;10.062;2024-03-06T14:03:04;13.30;94.00
9973;DHT22;5027;53.560;10.062;2024-03-06T14:05:31;13.30;93.60
9973;DHT22;5027;53.560;10.062;2024-03-06T14:07:58;13.40;94.30
9973;DHT22;5027;53.560;10.062;2024-03-06T14:10:25;13.60;93.80
9973;DHT22;5027;53.560;10.062;2024-03-06T14:12:53;13.60;93.70
9973;DHT22;5027;53.560;10.062;2024-03-06T14:15:21;13.70;93.70
9973;DHT22;5027;53.560;10.062;2024-03-06T14:21:07;13.90;93.00
9973;DHT22;5027;53.560;10.062;2024-03-06T14:23:34;13.80;92.90
9973;DHT22;5027;53.560;10.062;2024-03-06T14:26:01;13.90;93.30
9973;DHT22;5027;53.560;10.062;2024-03-06T14:28:29;14.00;93.20
9973;DHT22;5027;53.560;10.062;2024-03-06T14:30:55;14.00;92.90
9973;DHT22;5027;53.560;10.062;2024-03-06T14:33:22;14.10;93.40
9973;DHT22;5027;53.560;10.062;2024-03-06T14:35:49;14.10;92.80
9973;DHT22;5027;53.560;10.062;2024-03-06T14:38:16;14.20;92.80
9973;DHT22;5027;53.560;10.062;2024-03-06T14:40:42;14.20;93.00
9973;DHT22;5027;53.560;10.062;2024-03-06T14:43:10;14.20;92.80
9973;DHT22;5027;53.560;10.062;2024-03-06T14:45:37;14.10;93.10
9973;DHT22;5027;53.560;10.062;2024-03-06T14:48:08;14.20;93.10
9973;DHT22;5027;53.560;10.062;2024-03-06T14:50:35;14.10;92.70
9973;DHT22;5027;53.560;10.062;2024-03-06T14:53:02;14.10;92.60
9973;DHT22;5027;53.560;10.062;2024-03-06T14:55:29;14.00;92.90
9973;DHT22;5027;53.560;10.062;2024-03-06T14:57:56;14.10;92.90
9973;DHT22;5027;53.560;10.062;2024-03-06T15:00:23;14.20;92.60
9973;DHT22;5027;53.560;10.062;2024-03-06T15:02:49;14.20;92.70
9973;DHT22;5027;53.560;10.062;2024-03-06T15:05:16;14.20;92.80
9973;DHT22;5027;53.560;10.062;2024-03-06T15:07:43;14.20;92.80
9973;DHT22;5027;53.560;10.062;2024-03-06T15:10:09;14.30;92.40
9973;DHT22;5027;53.560;10.062;2024-03-06T15:12:37;14.20;92.70
9973;DHT22;5027;53.560;10.062;2024-03-06T15:15:05;14.20;92.80
9973;DHT22;5027;53.560;10.062;2024-03-06T15:17:33;14.20;92.80
9973;DHT22;5027;53.560;10.062;2024-03-06T15:19:59;14.20;92.80
9973;DHT22;5027;53.560;10.062;2024-03-06T15:22:26;14.30;92.70
9973;DHT22;5027;53.560;10.062;2024-03-06T15:24:53;14.20;92.50
9973;DHT22;5027;53.560;10.062;2024-03-06T15:27:20;14.20;92.40
9973;DHT22;5027;53.560;10.062;2024-03-06T15:29:47;14.20;92.80
9973;DHT22;5027;53.560;10.062;2024-03-06T15:32:14;14.20;92.50
9973;DHT22;5027;53.560;10.062;2024-03-06T15:34:41;14.20;92.80
9973;DHT22;5027;53.560;10.062;2024-03-06T15:37:08;14.10;92.50
9973;DHT22;5027;53.560;10.062;2024-03-06T15:39:35;14.00;92.30
9973;DHT22;5027;53.560;10.062;2024-03-06T15:42:01;13.90;92.40
9973;DHT22;5027;53.560;10.062;2024-03-06T15:44:28;13.80;92.50
9973;DHT22;5027;53.560;10.062;2024-03-06T15:46:55;13.80;92.60
9973;DHT22;5027;53.560;10.062;2024-03-06T15:49:35;13.70;92.90
9973;DHT22;5027;53.560;10.062;2024-03-06T15:52:02;13.70;92.80
9973;DHT22;5027;53.560;10.062;2024-03-06T15:54:30;13.70;92.80
9973;DHT22;5027;53.560;10.062;2024-03-06T15:56:57;13.70;92.50
9973;DHT22;5027;53.560;10.062;2024-03-06T15:59:24;13.70;92.70
9973;DHT22;5027;53.560;10.062;2024-03-06T16:01:51;13.60;92.80
9973;DHT22;5027;53.560;10.062;2024-03-06T16:04:18;13.60;92.80
9973;DHT22;5027;53.560;10.062;2024-03-06T16:06:44;13.60;92.60
9973;DHT22;5027;53.560;10.062;2024-03-06T16:09:12;13.50;92.60
9973;DHT22;5027;53.560;10.062;2024-03-06T16:11:41;13.50;92.70